Etusivu
METAR-TAF:

METAR-TAF

Lentoasemat :

Sault Ste. Marie, Michigan, Yhdysvallat

Leveyspiiri: 46-15N, Pituuspiiri: 084-28W, korkeus merenpinnasta: 244 m

Tämänhetkinen sää

Tämä raportti tehtiin 20 minuuttia sitten, kello 11.29 UTC
Tuuli 11 kn lännestä puuskistuen 18 kn:hen
Lämpötila 0°C
Kosteus 80%
Ilmanpaine 992 hPa
Näkyvyys: 16.1 km
Hajonneita pilviä 2800 ft:n korkeudessa
Pilvistä 6000 ft:n korkeudessa
tuntematon

METAR: KCIU 211129Z AUTO 26011G18KT 10SM UP BKN028 OVC060 00/M03 A2930 RMK AO2 RAE23UPB23 P0000 FZRANO

Aika: 06:49 (11:49 UTC)


TAF: puuttuu

Säähavainnot ja -ennusteet yli 4000 lentoasemalta (METAR- ja TAF-raportit).

Käytössä olevat sääasemat on merkitty karttaan keltaisilla ja punaisilla pisteillä.

Aseta hiiri pisteen päälle nähdäksesi sääaseman nimen.

Klikkaa sitten nähdäksesi säähavainnot ja -ennusteet.

Kartan vaihtaminen: klikkaa mustalla rastilla varustettuja vihreitä pisteitä, niin voit zoomata sisään; viivalla varustettua vihreää pistettä, niin voit zoomata ulos tai vihreitä nuolia, niin pääset viereisille kartoille.


METAR-TAF: